Conception, Missouri
Current Conditions -  °F | °C
As of 3:53 PM on Wednesday 22 Oct 2014 (Local Time) from KSTJ Reporting Station
Clear Clear  
Wind Chill: 73°   Ceiling: Unl
Heat Index: 73°   Visibility: 10mi
Dew Point: 55°   Wind: 14mph
Humidity: 53%   Direction: 130°SE
Pressure: 30.08"   Gusts: NA
Location:  40.24°N, 94.69°W
Report Text: KSTJ 222053Z AUTO 13012KT 10SM CLR 23/13 A3008 RMK AO2 SLP182 T02280128 56023
Loading
Personal Weather Stations






























Interactive Weather Map New forecast layout! Learn more

10-Day Weather Forecast

Advertisements
Track Severe Weather on mobile